Tucson, AZ

10:17 AM MST on December 20, 2014 (GMT -0700)
UA WRRC WEATHER | Change Station
CLOSE
Current Station
Personal Weather Station
Location: Tucson, AZ
Elevation: 2431 ft
Nearby Weather Stations

Elev 2431 ft 32.23 °N, 110.94 °W | Updated 10 minutes ago

Clear
Clear
50.9 °F
Feels Like 50.9 °F
N
0.0
Wind Variable Wind from East
Gusts 6.0 mph

Today
High -- | Low -- °F
--% Chance of Precip.
Yesterday
High -- | Low -- °F
Precip. -- in
7:20 AM 5:22 PM
Waning Crescent, 2% visible
Pressure 30.13 in
Visibility 10.0 miles
Clouds Clear
Dew Point 37 °F
Humidity 59%
Rainfall 0.00 in
Snow Depth Not available.
UV 2 out of 12
Pollen 5.20 out of 12
Air Quality Not available.
Flu Activity Not available.
METAR KDMA 201658Z AUTO 15009KT 10SM CLR 09/02 A3015 RMK AO2 SLP202 T00880022 $

More Conditions Fewer Conditions

Pressure 30.13 in
Visibility 10.0 miles
Clouds Clear
Dew Point 37 °F
Humidity 59%
Rainfall 0.00 in
Snow Depth Not available.
UV 2 out of 12
Pollen 5.20 out of 12
Air Quality Not available.
Flu Activity Not available.
METAR KDMA 201658Z AUTO 15009KT 10SM CLR 09/02 A3015 RMK AO2 SLP202 T00880022 $

More Conditions Fewer Conditions

10-Day Weather Forecast

Almanac

Astronomy

Dec. 20, 2014 Rise Set
Actual Time
Civil Twilight
Nautical Twilight
Astronomical Twilight
Moon
Length of Visible Light
Length of Day
Tomorrow will be .
, % of the Moon is Illuminated

Today's Extremes

State Highs State Lows

Community

WunderPhotos

Upload Photos

1,779,224 photos uploaded!

WunderBlogs® & News

Nearby

Air Quality

  Air Quality AQ Index Pollutant
Not available.

Snow Depth

Station Depth Elevation

Earthquake Activity

City Distance Mag. Time & Date
Minimum magnitude displayed is 2.5.

Coastal Water Temperatures

Place Temperature

Nearby Weather Stations